sensor_id;sensor_type;location;lat;lon;timestamp;pressure;altitude;pressure_sealevel;temperature;humidity
9235;BME280;4652;42.716;23.218;2023-04-09T00:05:49;95031.28;;;6.16;100.00
9235;BME280;4652;42.716;23.218;2023-04-09T00:12:31;95005.25;;;6.06;100.00
9235;BME280;4652;42.716;23.218;2023-04-09T00:19:13;95033.84;;;6.37;100.00
9235;BME280;4652;42.716;23.218;2023-04-09T00:25:57;95041.28;;;6.35;100.00
9235;BME280;4652;42.716;23.218;2023-04-09T00:32:39;95043.75;;;6.42;100.00
9235;BME280;4652;42.716;23.218;2023-04-09T00:39:21;95024.47;;;6.35;100.00
9235;BME280;4652;42.716;23.218;2023-04-09T00:46:05;95050.25;;;6.51;100.00
9235;BME280;4652;42.716;23.218;2023-04-09T00:52:47;95038.25;;;6.64;100.00
9235;BME280;4652;42.716;23.218;2023-04-09T00:59:29;95033.44;;;6.61;100.00
9235;BME280;4652;42.716;23.218;2023-04-09T02:05:19;95033.00;;;6.74;100.00
9235;BME280;4652;42.716;23.218;2023-04-09T02:12:05;95022.22;;;6.64;100.00
9235;BME280;4652;42.716;23.218;2023-04-09T02:18:51;95030.59;;;6.82;100.00
9235;BME280;4652;42.716;23.218;2023-04-09T02:25:35;95017.97;;;6.68;100.00
9235;BME280;4652;42.716;23.218;2023-04-09T02:32:17;95043.44;;;6.80;100.00
9235;BME280;4652;42.716;23.218;2023-04-09T02:38:59;95028.16;;;6.76;100.00
9235;BME280;4652;42.716;23.218;2023-04-09T02:45:42;95029.75;;;6.77;100.00
9235;BME280;4652;42.716;23.218;2023-04-09T02:52:24;95033.53;;;6.76;100.00
9235;BME280;4652;42.716;23.218;2023-04-09T02:59:06;95002.34;;;6.55;100.00
9235;BME280;4652;42.716;23.218;2023-04-09T03:05:49;95021.53;;;6.41;100.00
9235;BME280;4652;42.716;23.218;2023-04-09T03:12:31;95022.44;;;6.15;100.00
9235;BME280;4652;42.716;23.218;2023-04-09T03:19:13;95024.47;;;6.03;100.00
9235;BME280;4652;42.716;23.218;2023-04-09T03:26:04;95017.53;;;5.75;100.00
9235;BME280;4652;42.716;23.218;2023-04-09T03:32:46;95027.28;;;5.60;100.00
9235;BME280;4652;42.716;23.218;2023-04-09T03:39:28;95031.06;;;5.37;100.00
9235;BME280;4652;42.716;23.218;2023-04-09T03:46:13;95026.25;;;5.12;100.00
9235;BME280;4652;42.716;23.218;2023-04-09T03:52:55;95025.91;;;4.82;100.00
9235;BME280;4652;42.716;23.218;2023-04-09T03:59:37;95043.94;;;4.75;100.00
9235;BME280;4652;42.716;23.218;2023-04-09T04:06:21;95050.00;;;4.70;100.00
9235;BME280;4652;42.716;23.218;2023-04-09T04:13:03;95046.59;;;4.75;100.00
9235;BME280;4652;42.716;23.218;2023-04-09T04:19:47;95038.38;;;4.77;100.00
9235;BME280;4652;42.716;23.218;2023-04-09T04:26:31;95044.03;;;4.80;100.00
9235;BME280;4652;42.716;23.218;2023-04-09T04:33:13;95057.53;;;4.95;100.00
9235;BME280;4652;42.716;23.218;2023-04-09T04:39:55;95043.31;;;5.11;100.00
9235;BME280;4652;42.716;23.218;2023-04-09T04:46:38;95053.81;;;5.45;100.00
9235;BME280;4652;42.716;23.218;2023-04-09T04:53:20;95050.16;;;6.04;100.00
9235;BME280;4652;42.716;23.218;2023-04-09T05:00:02;95039.41;;;6.78;100.00
9235;BME280;4652;42.716;23.218;2023-04-09T05:06:46;95023.44;;;8.05;100.00
9235;BME280;4652;42.716;23.218;2023-04-09T05:13:28;95037.25;;;8.98;100.00
9235;BME280;4652;42.716;23.218;2023-04-09T05:20:11;95020.09;;;9.53;100.00
9235;BME280;4652;42.716;23.218;2023-04-09T05:26:54;95028.69;;;10.38;100.00
9235;BME280;4652;42.716;23.218;2023-04-09T05:33:37;95010.19;;;11.31;100.00
9235;BME280;4652;42.716;23.218;2023-04-09T05:40:19;95016.63;;;11.11;100.00
9235;BME280;4652;42.716;23.218;2023-04-09T05:47:02;95013.38;;;11.14;100.00
9235;BME280;4652;42.716;23.218;2023-04-09T05:53:44;95023.94;;;11.30;100.00
9235;BME280;4652;42.716;23.218;2023-04-09T06:00:26;95018.81;;;11.75;100.00
9235;BME280;4652;42.716;23.218;2023-04-09T06:07:10;95013.34;;;13.10;84.85
9235;BME280;4652;42.716;23.218;2023-04-09T06:13:52;95013.31;;;13.78;77.10
9235;BME280;4652;42.716;23.218;2023-04-09T06:27:16;95008.75;;;15.28;nan
9235;BME280;4652;42.716;23.218;2023-04-09T06:33:58;95013.81;;;13.80;nan
9235;BME280;4652;42.716;23.218;2023-04-09T06:40:40;95038.06;;;13.03;nan
9235;BME280;4652;42.716;23.218;2023-04-09T06:47:24;95029.66;;;14.08;nan
9235;BME280;4652;42.716;23.218;2023-04-09T06:54:06;95024.84;;;14.86;nan
9235;BME280;4652;42.716;23.218;2023-04-09T07:20:59;95036.72;;;12.87;71.72
9235;BME280;4652;42.716;23.218;2023-04-09T07:27:41;95045.50;;;12.14;80.96
9235;BME280;4652;42.716;23.218;2023-04-09T07:34:23;95037.03;;;10.36;100.00
9235;BME280;4652;42.716;23.218;2023-04-09T07:41:09;95035.56;;;9.76;100.00
9235;BME280;4652;42.716;23.218;2023-04-09T07:47:51;95058.41;;;10.23;100.00
9235;BME280;4652;42.716;23.218;2023-04-09T07:54:33;95033.09;;;12.13;84.56
9235;BME280;4652;42.716;23.218;2023-04-09T08:01:17;95036.25;;;12.53;74.53
9235;BME280;4652;42.716;23.218;2023-04-09T08:08:01;95048.25;;;11.91;74.25
9235;BME280;4652;42.716;23.218;2023-04-09T08:14:43;95060.31;;;12.17;72.40
9235;BME280;4652;42.716;23.218;2023-04-09T08:21:26;95063.59;;;12.14;72.15
9235;BME280;4652;42.716;23.218;2023-04-09T08:28:08;95065.94;;;12.20;70.40
9235;BME280;4652;42.716;23.218;2023-04-09T08:34:50;95054.41;;;12.15;71.71
9235;BME280;4652;42.716;23.218;2023-04-09T08:41:35;95048.03;;;11.45;77.14
9235;BME280;4652;42.716;23.218;2023-04-09T08:48:23;95028.94;;;11.84;73.98
9235;BME280;4652;42.716;23.218;2023-04-09T08:55:06;95007.44;;;11.97;75.23
9235;BME280;4652;42.716;23.218;2023-04-09T09:02:05;95028.72;;;11.80;74.23
9235;BME280;4652;42.716;23.218;2023-04-09T09:08:58;95034.75;;;11.91;75.38
9235;BME280;4652;42.716;23.218;2023-04-09T09:15:41;95031.63;;;12.02;74.11
9235;BME280;4652;42.716;23.218;2023-04-09T09:22:24;95010.94;;;11.98;76.55
9235;BME280;4652;42.716;23.218;2023-04-09T09:29:06;95022.50;;;12.17;77.02
9235;BME280;4652;42.716;23.218;2023-04-09T09:35:49;95027.69;;;11.34;80.81
9235;BME280;4652;42.716;23.218;2023-04-09T09:42:33;95009.22;;;11.46;84.67
9235;BME280;4652;42.716;23.218;2023-04-09T09:49:15;95002.06;;;11.55;80.56
9235;BME280;4652;42.716;23.218;2023-04-09T09:55:59;95000.66;;;11.57;81.10
9235;BME280;4652;42.716;23.218;2023-04-09T10:02:47;94996.06;;;11.39;82.71
9235;BME280;4652;42.716;23.218;2023-04-09T10:09:34;94985.16;;;11.07;81.57
9235;BME280;4652;42.716;23.218;2023-04-09T10:16:19;95007.41;;;11.17;79.89
9235;BME280;4652;42.716;23.218;2023-04-09T10:23:10;94991.72;;;11.19;77.26
9235;BME280;4652;42.716;23.218;2023-04-09T10:29:56;94989.78;;;11.25;73.84
9235;BME280;4652;42.716;23.218;2023-04-09T10:36:42;94999.16;;;11.51;70.47
9235;BME280;4652;42.716;23.218;2023-04-09T10:43:29;94980.19;;;11.56;69.41
9235;BME280;4652;42.716;23.218;2023-04-09T10:50:16;94977.75;;;11.78;68.23
9235;BME280;4652;42.716;23.218;2023-04-09T10:57:17;94941.34;;;11.95;66.15
9235;BME280;4652;42.716;23.218;2023-04-09T11:04:15;94940.88;;;12.38;65.52
9235;BME280;4652;42.716;23.218;2023-04-09T11:11:01;94953.13;;;12.77;67.09
9235;BME280;4652;42.716;23.218;2023-04-09T11:17:43;94942.09;;;12.60;64.38
9235;BME280;4652;42.716;23.218;2023-04-09T11:24:39;94959.06;;;12.33;65.67
9235;BME280;4652;42.716;23.218;2023-04-09T11:31:26;94951.25;;;11.99;69.47
9235;BME280;4652;42.716;23.218;2023-04-09T11:38:09;94952.25;;;12.35;75.15
9235;BME280;4652;42.716;23.218;2023-04-09T11:44:53;94955.88;;;12.31;83.55
9235;BME280;4652;42.716;23.218;2023-04-09T11:51:35;94965.38;;;12.28;81.85
9235;BME280;4652;42.716;23.218;2023-04-09T11:58:21;94959.97;;;12.28;100.00
9235;BME280;4652;42.716;23.218;2023-04-09T12:05:07;94933.13;;;12.18;100.00
9235;BME280;4652;42.716;23.218;2023-04-09T12:11:49;94944.28;;;12.44;97.76
9235;BME280;4652;42.716;23.218;2023-04-09T12:18:34;94936.72;;;12.87;95.91
9235;BME280;4652;42.716;23.218;2023-04-09T12:25:18;94933.84;;;13.24;91.66
9235;BME280;4652;42.716;23.218;2023-04-09T12:32:00;94934.53;;;13.66;92.56
9235;BME280;4652;42.716;23.218;2023-04-09T12:38:41;94927.94;;;14.16;80.47
9235;BME280;4652;42.716;23.218;2023-04-09T12:45:25;94898.56;;;14.09;72.45
9235;BME280;4652;42.716;23.218;2023-04-09T12:52:07;94913.38;;;14.56;72.02
9235;BME280;4652;42.716;23.218;2023-04-09T12:58:49;94905.53;;;14.46;67.63
9235;BME280;4652;42.716;23.218;2023-04-09T13:18:33;94891.88;;;13.85;70.93
9235;BME280;4652;42.716;23.218;2023-04-09T13:25:14;94898.31;;;13.17;74.36
9235;BME280;4652;42.716;23.218;2023-04-09T13:31:57;94887.38;;;12.95;85.04
9235;BME280;4652;42.716;23.218;2023-04-09T13:38:43;94889.69;;;12.61;83.39
9235;BME280;4652;42.716;23.218;2023-04-09T13:45:25;94905.03;;;12.19;93.36
9235;BME280;4652;42.716;23.218;2023-04-09T13:52:07;94919.63;;;11.86;100.00
9235;BME280;4652;42.716;23.218;2023-04-09T13:58:51;94890.78;;;11.31;100.00
9235;BME280;4652;42.716;23.218;2023-04-09T14:05:33;94909.78;;;11.39;100.00
9235;BME280;4652;42.716;23.218;2023-04-09T14:12:15;94898.03;;;11.49;100.00
9235;BME280;4652;42.716;23.218;2023-04-09T14:18:58;94848.06;;;10.82;100.00
9235;BME280;4652;42.716;23.218;2023-04-09T14:25:40;94898.69;;;10.85;100.00
9235;BME280;4652;42.716;23.218;2023-04-09T14:32:22;94895.66;;;10.68;100.00
9235;BME280;4652;42.716;23.218;2023-04-09T14:39:06;94902.19;;;10.61;100.00
9235;BME280;4652;42.716;23.218;2023-04-09T14:45:48;94894.53;;;10.92;100.00
9235;BME280;4652;42.716;23.218;2023-04-09T14:52:30;94902.28;;;11.17;100.00
9235;BME280;4652;42.716;23.218;2023-04-09T14:59:13;94904.97;;;11.55;100.00
9235;BME280;4652;42.716;23.218;2023-04-09T15:05:55;94882.72;;;11.63;100.00
9235;BME280;4652;42.716;23.218;2023-04-09T15:12:37;94884.13;;;11.79;100.00
9235;BME280;4652;42.716;23.218;2023-04-09T15:19:20;94890.25;;;11.47;100.00
9235;BME280;4652;42.716;23.218;2023-04-09T15:26:02;94888.56;;;11.33;100.00
9235;BME280;4652;42.716;23.218;2023-04-09T15:32:44;94881.22;;;11.01;100.00
9235;BME280;4652;42.716;23.218;2023-04-09T15:39:27;94878.13;;;10.89;100.00
9235;BME280;4652;42.716;23.218;2023-04-09T15:46:11;94861.66;;;10.72;100.00
9235;BME280;4652;42.716;23.218;2023-04-09T15:52:55;94878.25;;;10.60;100.00
9235;BME280;4652;42.716;23.218;2023-04-09T15:59:38;94884.72;;;10.35;100.00
9235;BME280;4652;42.716;23.218;2023-04-09T16:06:20;94884.59;;;10.22;100.00
9235;BME280;4652;42.716;23.218;2023-04-09T16:13:03;94881.72;;;10.37;100.00
9235;BME280;4652;42.716;23.218;2023-04-09T16:19:46;94844.16;;;10.27;100.00
9235;BME280;4652;42.716;23.218;2023-04-09T16:26:28;94879.44;;;10.49;100.00
9235;BME280;4652;42.716;23.218;2023-04-09T16:33:11;94847.38;;;10.29;100.00
9235;BME280;4652;42.716;23.218;2023-04-09T16:39:54;94892.25;;;10.33;100.00
9235;BME280;4652;42.716;23.218;2023-04-09T16:46:36;94890.09;;;10.35;100.00
9235;BME280;4652;42.716;23.218;2023-04-09T16:53:18;94880.66;;;10.38;100.00
9235;BME280;4652;42.716;23.218;2023-04-09T17:00:01;94892.91;;;10.49;100.00
9235;BME280;4652;42.716;23.218;2023-04-09T17:06:44;94889.69;;;10.47;100.00
9235;BME280;4652;42.716;23.218;2023-04-09T17:13:26;94899.69;;;10.41;100.00
9235;BME280;4652;42.716;23.218;2023-04-09T17:20:11;94908.59;;;10.42;100.00
9235;BME280;4652;42.716;23.218;2023-04-09T17:26:53;94905.09;;;10.41;100.00
9235;BME280;4652;42.716;23.218;2023-04-09T17:33:36;94909.31;;;10.24;100.00
9235;BME280;4652;42.716;23.218;2023-04-09T17:40:19;94927.00;;;10.01;100.00
9235;BME280;4652;42.716;23.218;2023-04-09T17:47:01;94929.97;;;9.99;100.00
9235;BME280;4652;42.716;23.218;2023-04-09T17:53:43;94921.91;;;9.94;100.00
9235;BME280;4652;42.716;23.218;2023-04-09T18:00:28;94930.13;;;10.08;100.00
9235;BME280;4652;42.716;23.218;2023-04-09T18:07:10;94923.03;;;9.93;100.00
9235;BME280;4652;42.716;23.218;2023-04-09T18:13:51;94958.09;;;10.12;100.00
9235;BME280;4652;42.716;23.218;2023-04-09T18:20:35;94947.19;;;9.98;100.00
9235;BME280;4652;42.716;23.218;2023-04-09T18:27:17;94948.56;;;9.96;100.00
9235;BME280;4652;42.716;23.218;2023-04-09T18:33:59;94970.63;;;9.54;100.00
9235;BME280;4652;42.716;23.218;2023-04-09T18:40:43;94968.13;;;9.24;100.00
9235;BME280;4652;42.716;23.218;2023-04-09T18:47:25;94965.44;;;9.24;100.00
9235;BME280;4652;42.716;23.218;2023-04-09T18:54:07;94963.78;;;9.33;100.00
9235;BME280;4652;42.716;23.218;2023-04-09T19:08:10;94960.25;;;9.37;100.00
9235;BME280;4652;42.716;23.218;2023-04-09T19:14:52;94968.25;;;9.48;100.00
9235;BME280;4652;42.716;23.218;2023-04-09T19:21:34;94946.22;;;9.45;100.00
9235;BME280;4652;42.716;23.218;2023-04-09T19:28:18;94957.25;;;9.49;100.00
9235;BME280;4652;42.716;23.218;2023-04-09T19:35:00;94967.91;;;9.59;100.00
9235;BME280;4652;42.716;23.218;2023-04-09T19:41:42;94963.81;;;9.23;100.00
9235;BME280;4652;42.716;23.218;2023-04-09T19:48:25;94959.66;;;8.97;100.00
9235;BME280;4652;42.716;23.218;2023-04-09T19:55:08;94964.38;;;8.56;100.00
9235;BME280;4652;42.716;23.218;2023-04-09T20:01:50;94946.47;;;8.31;100.00
9235;BME280;4652;42.716;23.218;2023-04-09T20:08:34;94951.00;;;8.15;100.00
9235;BME280;4652;42.716;23.218;2023-04-09T20:15:16;94943.50;;;8.12;100.00
9235;BME280;4652;42.716;23.218;2023-04-09T20:21:59;94958.25;;;8.25;100.00
9235;BME280;4652;42.716;23.218;2023-04-09T20:28:42;94947.53;;;8.10;100.00
9235;BME280;4652;42.716;23.218;2023-04-09T20:35:24;94927.69;;;8.06;100.00
9235;BME280;4652;42.716;23.218;2023-04-09T20:42:06;94954.47;;;8.46;100.00
9235;BME280;4652;42.716;23.218;2023-04-09T20:48:50;94939.72;;;8.44;100.00
9235;BME280;4652;42.716;23.218;2023-04-09T20:55:31;94930.34;;;8.41;100.00
9235;BME280;4652;42.716;23.218;2023-04-09T21:02:13;94938.41;;;8.36;100.00
9235;BME280;4652;42.716;23.218;2023-04-09T21:08:57;94951.22;;;8.54;100.00
9235;BME280;4652;42.716;23.218;2023-04-09T21:15:39;94920.19;;;8.28;100.00
9235;BME280;4652;42.716;23.218;2023-04-09T21:22:21;94927.41;;;8.27;100.00
9235;BME280;4652;42.716;23.218;2023-04-09T21:29:07;94950.72;;;8.42;100.00
9235;BME280;4652;42.716;23.218;2023-04-09T21:35:50;94940.53;;;8.24;100.00
9235;BME280;4652;42.716;23.218;2023-04-09T21:42:33;94941.34;;;8.19;100.00
9235;BME280;4652;42.716;23.218;2023-04-09T21:49:16;94947.50;;;8.25;100.00
9235;BME280;4652;42.716;23.218;2023-04-09T21:55:58;94945.91;;;8.19;100.00
9235;BME280;4652;42.716;23.218;2023-04-09T22:02:40;94948.34;;;8.00;100.00
9235;BME280;4652;42.716;23.218;2023-04-09T22:09:24;94943.00;;;8.00;100.00
9235;BME280;4652;42.716;23.218;2023-04-09T22:16:07;94947.00;;;7.78;100.00
9235;BME280;4652;42.716;23.218;2023-04-09T22:22:49;94948.34;;;7.65;100.00
9235;BME280;4652;42.716;23.218;2023-04-09T22:29:32;94951.25;;;7.38;100.00
9235;BME280;4652;42.716;23.218;2023-04-09T22:36:14;94937.56;;;7.20;100.00
9235;BME280;4652;42.716;23.218;2023-04-09T22:42:56;94942.91;;;7.09;100.00
9235;BME280;4652;42.716;23.218;2023-04-09T22:49:39;94921.22;;;7.01;100.00
9235;BME280;4652;42.716;23.218;2023-04-09T22:56:22;94912.38;;;7.05;100.00
9235;BME280;4652;42.716;23.218;2023-04-09T23:03:04;94910.50;;;7.11;100.00
9235;BME280;4652;42.716;23.218;2023-04-09T23:09:48;94918.00;;;7.04;100.00
9235;BME280;4652;42.716;23.218;2023-04-09T23:16:30;94929.25;;;7.06;100.00
9235;BME280;4652;42.716;23.218;2023-04-09T23:23:12;94929.19;;;6.96;100.00
9235;BME280;4652;42.716;23.218;2023-04-09T23:29:55;94931.88;;;6.96;100.00
9235;BME280;4652;42.716;23.218;2023-04-09T23:36:37;94924.41;;;6.93;100.00
9235;BME280;4652;42.716;23.218;2023-04-09T23:43:19;94919.50;;;6.70;100.00
9235;BME280;4652;42.716;23.218;2023-04-09T23:50:04;94928.56;;;6.64;100.00
9235;BME280;4652;42.716;23.218;2023-04-09T23:56:46;94926.69;;;6.64;100.00
